Unken, Austria
Current Conditions -  °F | °C
As of 10:50 PM on Tuesday 27 Jan 2015 (Local Time) from LOWS Reporting Station
Snow Showers Snow Showers  
Wind Chill: 27°   Ceiling: 2200
Heat Index: 32°   Visibility: 4mi
Dew Point: 30°   Wind: 5mph
Humidity: 93%   Direction: 310°NW
Pressure: 30.12"   Gusts: NA
Location:  47.65°N, 12.73°E
Report Text: LOWS 272050Z 31004KT 260V340 6000 -SHSN FEW007 BKN022 BKN045 00/M01 Q1020 R15/29//95 NOSIG
Loading
Personal Weather Stations






























Interactive Weather Map New forecast layout! Learn more

10-Day Weather Forecast

Advertisements
Track Severe Weather on mobile